Aviation Digital Data Service (ADDS)

Output produced by METARs form (1049 UTC 19 January 2019)
found at http://www.aviationweather.gov/metar/data/
 
OKAS 190956Z 32011G17KT 9999 CLR 13/M04 A3022 RMK AO2A SLP235 WND DATA ESTMD T01341043 PA +197
TAF OKAS 190700Z 1907/2013 31012KT 9999 SKC QNH3018INS 
     TEMPO 1910/1913 31010G15KT 9000 HZ 
     BECMG 1914/1915 VRB06KT 9999 SKC QNH3025INS TX14/1910Z TN03/2003Z
       
OKBK 191000Z 35011KT CAVOK 14/M02 Q1022 NOSIG
TAF OKBK 190445Z 1906/2012 33010KT 7000 SKC